createdAt,value
2018-05-10T00:00:55.659Z,98.60
2018-05-10T00:04:58.481Z,98.70
2018-05-10T00:09:03.055Z,98.80
2018-05-10T00:13:05.574Z,98.50
2018-05-10T00:17:08.891Z,98.60
2018-05-10T00:21:12.234Z,99.30
2018-05-10T00:25:14.779Z,98.90
2018-05-10T00:29:17.374Z,98.80
2018-05-10T00:33:20.702Z,98.90
2018-05-10T00:37:23.271Z,98.90
2018-05-10T00:41:26.595Z,99.00
2018-05-10T00:45:29.889Z,98.90
2018-05-10T00:49:32.474Z,98.90
2018-05-10T00:53:34.999Z,98.60
2018-05-10T00:57:37.562Z,99.00
2018-05-10T01:01:40.847Z,98.70
2018-05-10T01:05:47.534Z,99.00
2018-05-10T01:09:50.057Z,98.90
2018-05-10T01:13:53.475Z,99.60
2018-05-10T01:17:56.976Z,99.60
2018-05-10T01:21:59.530Z,99.70
2018-05-10T01:26:02.818Z,99.70
2018-05-10T01:30:05.499Z,99.50
2018-05-10T01:34:08.011Z,99.80
2018-05-10T01:38:10.573Z,99.90
2018-05-10T01:42:13.863Z,99.60
2018-05-10T01:46:18.536Z,99.50
2018-05-10T01:50:21.058Z,99.30
2018-05-10T01:54:24.466Z,98.90
2018-05-10T01:58:34.787Z,98.90
2018-05-10T02:02:37.371Z,98.90
2018-05-10T02:06:40.658Z,99.40
2018-05-10T02:10:43.218Z,99.40
2018-05-10T02:14:45.752Z,99.50
2018-05-10T02:18:48.720Z,99.60
2018-05-10T02:22:52.024Z,99.70
2018-05-10T02:26:54.706Z,99.70
2018-05-10T02:30:59.255Z,99.60
2018-05-10T02:35:01.895Z,99.70
2018-05-10T02:39:04.428Z,99.60
2018-05-10T02:43:07.114Z,99.70
2018-05-10T02:47:09.661Z,99.70
2018-05-10T02:51:12.269Z,99.60
2018-05-10T02:55:14.792Z,99.60
2018-05-10T02:59:17.369Z,99.60
2018-05-10T03:03:19.934Z,99.80
2018-05-10T03:07:22.483Z,99.50
2018-05-10T03:11:25.015Z,99.90
2018-05-10T03:15:27.570Z,99.80
2018-05-10T03:19:31.866Z,99.90
2018-05-10T03:23:34.427Z,99.90
2018-05-10T03:27:37.718Z,99.90
2018-05-10T03:31:40.371Z,99.80
2018-05-10T03:35:42.911Z,99.90
2018-05-10T03:39:45.478Z,99.90
2018-05-10T03:43:51.815Z,99.90
2018-05-10T03:47:54.377Z,99.90
2018-05-10T03:51:57.671Z,99.90
2018-05-10T03:56:00.225Z,99.90
2018-05-10T04:00:03.743Z,99.90
2018-05-10T04:04:27.982Z,99.90
2018-05-10T04:08:42.418Z,99.90
2018-05-10T04:12:45.012Z,99.90
2018-05-10T04:16:47.555Z,99.90
2018-05-10T04:20:51.047Z,99.90
2018-05-10T04:24:53.584Z,99.90
2018-05-10T04:28:56.899Z,99.90
2018-05-10T04:33:00.184Z,99.90
2018-05-10T04:37:02.754Z,99.90
2018-05-10T04:41:06.054Z,99.90
2018-05-10T04:45:09.461Z,99.90
2018-05-10T04:49:11.983Z,99.90
2018-05-10T04:53:15.623Z,99.90
2018-05-10T04:57:18.155Z,99.90
2018-05-10T05:01:20.730Z,99.90
2018-05-10T05:05:24.019Z,99.90
2018-05-10T05:09:26.575Z,99.90
2018-05-10T05:13:29.100Z,99.90
2018-05-10T05:17:31.990Z,99.90
2018-05-10T05:21:34.627Z,99.90
2018-05-10T05:25:37.108Z,99.60
2018-05-10T05:29:39.641Z,99.70
2018-05-10T05:33:42.282Z,99.80
2018-05-10T05:37:45.399Z,99.90
2018-05-10T05:41:47.955Z,99.90
2018-05-10T05:45:50.478Z,99.90
2018-05-10T05:49:53.035Z,99.90
2018-05-10T05:53:56.335Z,99.90
2018-05-10T05:57:58.903Z,99.90
2018-05-10T06:02:01.445Z,99.70
2018-05-10T06:06:04.384Z,99.80
2018-05-10T06:10:09.602Z,99.30
2018-05-10T06:14:12.159Z,99.30
2018-05-10T06:18:15.460Z,99.10
2018-05-10T06:22:18.802Z,99.00
2018-05-10T06:26:21.332Z,99.00
2018-05-10T06:30:23.894Z,98.80
2018-05-10T06:34:26.411Z,98.70
2018-05-10T06:38:29.753Z,98.60
2018-05-10T06:42:32.313Z,98.60
2018-05-10T06:46:34.876Z,98.60
2018-05-10T06:50:37.446Z,98.70
2018-05-10T06:54:40.033Z,98.80
2018-05-10T06:58:42.543Z,98.50
2018-05-10T07:02:45.094Z,99.00
2018-05-10T07:06:47.626Z,99.00
2018-05-10T07:10:50.186Z,99.40
2018-05-10T07:14:54.720Z,99.70
2018-05-10T07:18:57.603Z,99.90
2018-05-10T07:23:00.147Z,99.90
2018-05-10T07:27:02.734Z,99.90
2018-05-10T07:31:05.255Z,99.90
2018-05-10T07:35:08.906Z,99.90
2018-05-10T07:39:12.199Z,99.90
2018-05-10T07:43:14.935Z,99.90
2018-05-10T07:47:18.231Z,99.90
2018-05-10T07:51:20.795Z,99.90
2018-05-10T07:55:23.356Z,99.90
2018-05-10T07:59:25.914Z,99.90
2018-05-10T08:03:28.488Z,99.90
2018-05-10T08:07:31.087Z,99.90
2018-05-10T08:11:34.384Z,99.90
2018-05-10T08:15:40.832Z,99.90
2018-05-10T08:19:49.534Z,99.90
2018-05-10T08:23:54.216Z,99.90
2018-05-10T08:27:57.510Z,99.90
2018-05-10T08:32:00.150Z,99.90
2018-05-10T08:36:03.447Z,99.90
2018-05-10T08:40:11.648Z,99.90
2018-05-10T08:44:18.681Z,99.90
2018-05-10T08:48:22.230Z,99.90
2018-05-10T08:52:24.751Z,99.90
2018-05-10T08:56:28.082Z,99.90
2018-05-10T09:00:30.606Z,99.90
2018-05-10T09:04:33.327Z,99.90
2018-05-10T09:08:35.872Z,99.90
2018-05-10T09:12:40.501Z,99.90
2018-05-10T09:16:48.132Z,99.90
2018-05-10T09:20:52.436Z,99.90
2018-05-10T09:24:55.774Z,99.90
2018-05-10T09:28:58.332Z,99.90
2018-05-10T09:33:00.859Z,99.90
2018-05-10T09:37:03.730Z,99.90
2018-05-10T09:41:07.274Z,99.90
2018-05-10T09:45:09.839Z,99.90
2018-05-10T09:49:12.364Z,99.90
2018-05-10T09:53:15.109Z,99.90
2018-05-10T09:57:17.647Z,99.90
2018-05-10T10:01:20.204Z,99.90
2018-05-10T10:05:22.723Z,99.90
2018-05-10T10:09:25.314Z,99.90
2018-05-10T10:13:27.940Z,99.90
2018-05-10T10:17:30.587Z,99.90
2018-05-10T10:21:33.038Z,99.90
2018-05-10T10:25:35.742Z,99.90
2018-05-10T10:29:38.265Z,99.90
2018-05-10T10:33:40.909Z,99.90
2018-05-10T10:41:31.272Z,99.90
2018-05-10T10:45:33.843Z,99.90
2018-05-10T10:49:37.433Z,99.90
2018-05-10T10:53:40.716Z,99.90
2018-05-10T10:57:43.267Z,99.90
2018-05-10T11:01:45.810Z,99.90
2018-05-10T11:05:49.230Z,99.90
2018-05-10T11:09:51.747Z,99.90
2018-05-10T11:13:56.293Z,99.90
2018-05-10T11:17:58.807Z,99.90
2018-05-10T11:22:03.643Z,99.90
2018-05-10T11:26:12.291Z,99.90
2018-05-10T11:30:16.045Z,99.90
2018-05-10T11:34:19.538Z,99.90
2018-05-10T11:38:22.099Z,99.90
2018-05-10T11:42:25.405Z,99.90
2018-05-10T11:46:30.676Z,99.90
2018-05-10T11:50:35.224Z,99.90
2018-05-10T11:54:37.779Z,99.90
2018-05-10T11:58:40.303Z,99.90
2018-05-10T12:02:43.949Z,99.90
2018-05-10T12:06:46.513Z,99.90
2018-05-10T12:10:53.430Z,99.90
2018-05-10T12:14:55.942Z,99.90
2018-05-10T12:18:58.590Z,99.90
2018-05-10T12:23:01.456Z,99.90
2018-05-10T12:27:05.926Z,99.90
2018-05-10T12:31:09.493Z,99.90
2018-05-10T12:35:12.113Z,99.90
2018-05-10T12:39:15.395Z,99.90
2018-05-10T12:43:19.367Z,99.90
2018-05-10T12:47:22.699Z,99.90
2018-05-10T12:51:27.991Z,99.90
2018-05-10T12:55:31.471Z,99.90
2018-05-10T12:59:34.160Z,99.90
2018-05-10T13:03:36.992Z,99.90
2018-05-10T13:07:41.561Z,99.90
2018-05-10T13:11:44.855Z,99.90
2018-05-10T13:15:49.530Z,99.90
2018-05-10T13:19:53.854Z,99.90
2018-05-10T13:23:57.459Z,99.90
2018-05-10T13:28:01.935Z,99.90
2018-05-10T13:32:04.627Z,99.90
2018-05-10T13:36:07.152Z,99.90
2018-05-10T13:40:09.722Z,99.90
2018-05-10T13:44:12.247Z,99.90
2018-05-10T13:48:15.799Z,99.90
2018-05-10T13:52:18.315Z,99.90
2018-05-10T13:56:21.855Z,99.90
2018-05-10T14:00:25.162Z,99.90
2018-05-10T14:04:27.756Z,99.90
2018-05-10T14:08:30.267Z,99.90
2018-05-10T14:12:32.852Z,99.90
2018-05-10T14:16:35.469Z,99.90
2018-05-10T14:20:39.379Z,99.90
2018-05-10T14:24:41.943Z,99.90
2018-05-10T14:28:45.660Z,99.90
2018-05-10T14:32:48.192Z,99.90
2018-05-10T14:36:52.527Z,99.90
2018-05-10T14:40:55.924Z,99.90
2018-05-10T14:44:58.557Z,99.90
2018-05-10T14:49:07.893Z,99.90
2018-05-10T14:53:11.983Z,99.90
2018-05-10T14:57:16.302Z,99.90
2018-05-10T15:01:19.839Z,99.90
2018-05-10T15:05:23.133Z,99.90
2018-05-10T15:09:25.730Z,99.90
2018-05-10T15:13:28.277Z,99.90
2018-05-10T15:17:31.214Z,99.90
2018-05-10T15:21:33.774Z,99.90
2018-05-10T15:25:36.357Z,99.90
2018-05-10T15:29:39.700Z,99.90
2018-05-10T15:33:43.278Z,99.90
2018-05-10T15:37:48.504Z,99.90
2018-05-10T15:41:51.058Z,99.90
2018-05-10T15:45:53.599Z,99.90
2018-05-10T15:49:56.162Z,99.90
2018-05-10T15:53:59.457Z,99.90
2018-05-10T15:58:02.019Z,99.90
2018-05-10T16:02:06.506Z,99.90
2018-05-10T16:06:09.605Z,99.90
2018-05-10T16:10:12.374Z,99.90
2018-05-10T16:14:15.062Z,99.90
2018-05-10T16:18:17.603Z,99.90
2018-05-10T16:22:24.787Z,99.90
2018-05-10T16:26:27.341Z,99.90
2018-05-10T16:30:29.935Z,99.90
2018-05-10T16:34:32.743Z,99.90
2018-05-10T16:38:36.387Z,99.90
2018-05-10T16:42:40.107Z,99.90
2018-05-10T16:46:43.220Z,99.90
2018-05-10T16:50:45.902Z,99.90
2018-05-10T16:54:49.215Z,99.90
2018-05-10T16:58:51.782Z,99.90
2018-05-10T17:02:55.147Z,99.90
2018-05-10T17:06:57.703Z,99.90
2018-05-10T17:11:00.950Z,99.90
2018-05-10T17:15:05.350Z,99.90
2018-05-10T17:19:07.992Z,99.90
2018-05-10T17:23:10.531Z,99.90
2018-05-10T17:27:13.095Z,99.90
2018-05-10T17:31:15.672Z,99.90
2018-05-10T17:35:19.182Z,99.90
2018-05-10T17:39:21.707Z,99.90
2018-05-10T17:43:25.058Z,99.90
2018-05-10T17:47:27.635Z,99.90
2018-05-10T17:51:31.368Z,99.90
2018-05-10T17:55:34.662Z,99.90
2018-05-10T17:59:37.207Z,99.90
2018-05-10T18:03:39.762Z,99.90
2018-05-10T18:07:42.322Z,99.90
2018-05-10T18:11:44.876Z,99.90
2018-05-10T18:15:47.468Z,99.90
2018-05-10T18:19:50.003Z,99.90
2018-05-10T18:23:52.643Z,99.90
2018-05-10T18:27:55.247Z,99.90
2018-05-10T18:31:58.771Z,99.90
2018-05-10T18:36:02.062Z,99.90
2018-05-10T18:40:04.634Z,99.90
2018-05-10T18:44:08.194Z,99.90
2018-05-10T18:48:11.470Z,99.90
2018-05-10T18:52:14.000Z,99.90
2018-05-10T18:56:16.572Z,99.90
2018-05-10T19:00:19.137Z,99.90
2018-05-10T19:04:21.678Z,99.90
2018-05-10T19:08:24.236Z,99.90
2018-05-10T19:12:26.807Z,99.90
2018-05-10T19:16:30.274Z,99.90
2018-05-10T19:20:32.833Z,99.90
2018-05-10T19:24:38.963Z,99.90
2018-05-10T19:28:41.836Z,99.90
2018-05-10T19:32:44.371Z,99.90
2018-05-10T19:36:46.930Z,99.90
2018-05-10T19:40:50.255Z,99.90
2018-05-10T19:44:54.865Z,99.90
2018-05-10T19:49:01.155Z,99.90
2018-05-10T19:53:03.789Z,99.90
2018-05-10T19:57:06.379Z,99.90
2018-05-10T20:01:08.931Z,99.90
2018-05-10T20:05:11.660Z,99.90
2018-05-10T20:09:15.142Z,99.90
2018-05-10T20:13:17.673Z,99.90
2018-05-10T20:17:22.002Z,99.90
2018-05-10T20:21:24.575Z,99.90
2018-05-10T20:25:27.244Z,99.90
2018-05-10T20:29:29.819Z,99.90
2018-05-10T20:33:32.429Z,99.90
2018-05-10T20:37:34.954Z,99.90
2018-05-10T20:41:37.554Z,99.90
2018-05-10T20:45:41.099Z,99.90
2018-05-10T20:49:43.794Z,99.90
2018-05-10T20:53:46.355Z,99.90
2018-05-10T20:57:51.264Z,99.90
2018-05-10T21:01:53.952Z,99.90
2018-05-10T21:05:56.468Z,99.90
2018-05-10T21:10:00.842Z,99.90
2018-05-10T21:14:03.755Z,99.90
2018-05-10T21:18:07.386Z,99.90
2018-05-10T21:22:09.962Z,99.90
2018-05-10T21:26:12.678Z,99.90
2018-05-10T21:30:16.494Z,99.90
2018-05-10T21:34:19.146Z,99.90
2018-05-10T21:38:21.706Z,99.90
2018-05-10T21:42:25.224Z,99.90
2018-05-10T21:46:27.781Z,99.90
2018-05-10T21:50:30.347Z,99.90
2018-05-10T21:54:32.996Z,99.90
2018-05-10T21:58:35.523Z,99.90
2018-05-10T22:02:38.078Z,99.90
2018-05-10T22:06:40.670Z,99.90
2018-05-10T22:10:43.504Z,99.90
2018-05-10T22:14:46.023Z,99.90
2018-05-10T22:18:48.988Z,99.90
2018-05-10T22:22:54.421Z,99.90
2018-05-10T22:26:56.979Z,99.90
2018-05-10T22:30:59.742Z,99.90
2018-05-10T22:35:02.373Z,99.90
2018-05-10T22:39:06.934Z,99.90
2018-05-10T22:43:09.579Z,99.90
2018-05-10T22:47:12.128Z,99.90
2018-05-10T22:51:14.681Z,99.90
2018-05-10T22:55:17.204Z,99.90
2018-05-10T22:59:20.515Z,99.90
2018-05-10T23:03:24.021Z,99.90
2018-05-10T23:07:26.575Z,99.90
2018-05-10T23:11:29.243Z,99.90
2018-05-10T23:15:31.914Z,99.90
2018-05-10T23:19:34.436Z,99.90
2018-05-10T23:23:37.123Z,99.90
2018-05-10T23:27:39.819Z,99.90
2018-05-10T23:31:42.726Z,99.90
2018-05-10T23:35:45.242Z,99.90
2018-05-10T23:39:47.799Z,99.90
2018-05-10T23:43:50.333Z,99.90
2018-05-10T23:47:52.927Z,99.90
2018-05-10T23:51:56.221Z,99.90
2018-05-10T23:55:58.861Z,99.90
